sensor_id;sensor_type;location;lat;lon;timestamp;pressure;altitude;pressure_sealevel;temperature;humidity
49342;BME280;35210;41.606;-87.602;2023-04-20T00:00:39;99003.19;;;19.29;82.54
49342;BME280;35210;41.606;-87.602;2023-04-20T00:03:08;99021.66;;;19.24;82.24
49342;BME280;35210;41.606;-87.602;2023-04-20T00:05:39;99053.41;;;19.27;82.76
49342;BME280;35210;41.606;-87.602;2023-04-20T00:08:07;99043.16;;;19.31;84.28
49342;BME280;35210;41.606;-87.602;2023-04-20T00:10:35;99039.91;;;19.35;84.99
49342;BME280;35210;41.606;-87.602;2023-04-20T00:13:03;99027.63;;;19.41;85.48
49342;BME280;35210;41.606;-87.602;2023-04-20T00:15:32;98993.69;;;19.56;85.90
49342;BME280;35210;41.606;-87.602;2023-04-20T00:18:00;99006.91;;;19.58;85.77
49342;BME280;35210;41.606;-87.602;2023-04-20T00:20:29;99048.63;;;19.52;86.50
49342;BME280;35210;41.606;-87.602;2023-04-20T00:22:58;99043.69;;;19.41;87.88
49342;BME280;35210;41.606;-87.602;2023-04-20T00:25:26;99058.56;;;19.44;88.16
49342;BME280;35210;41.606;-87.602;2023-04-20T00:27:55;99067.53;;;19.51;88.10
49342;BME280;35210;41.606;-87.602;2023-04-20T00:30:23;99073.38;;;19.54;88.75
49342;BME280;35210;41.606;-87.602;2023-04-20T00:32:52;99069.50;;;19.57;88.75
49342;BME280;35210;41.606;-87.602;2023-04-20T00:35:20;99071.59;;;19.47;90.21
49342;BME280;35210;41.606;-87.602;2023-04-20T00:37:48;99071.06;;;19.51;89.64
49342;BME280;35210;41.606;-87.602;2023-04-20T00:40:18;99061.00;;;19.53;89.70
49342;BME280;35210;41.606;-87.602;2023-04-20T00:42:46;99083.72;;;19.57;89.35
49342;BME280;35210;41.606;-87.602;2023-04-20T00:45:15;99073.28;;;19.62;90.59
49342;BME280;35210;41.606;-87.602;2023-04-20T00:47:43;99060.38;;;19.51;92.10
49342;BME280;35210;41.606;-87.602;2023-04-20T00:50:11;99073.00;;;19.57;91.46
49342;BME280;35210;41.606;-87.602;2023-04-20T00:52:39;99088.91;;;19.59;91.34
49342;BME280;35210;41.606;-87.602;2023-04-20T00:55:09;99077.91;;;19.68;91.10
49342;BME280;35210;41.606;-87.602;2023-04-20T00:57:40;99078.75;;;19.69;91.08
49342;BME280;35210;41.606;-87.602;2023-04-20T01:00:10;99074.22;;;19.69;91.16
49342;BME280;35210;41.606;-87.602;2023-04-20T01:02:38;99072.38;;;19.55;91.95
49342;BME280;35210;41.606;-87.602;2023-04-20T01:05:06;99076.06;;;19.54;91.54
49342;BME280;35210;41.606;-87.602;2023-04-20T01:07:35;99073.44;;;19.46;91.81
49342;BME280;35210;41.606;-87.602;2023-04-20T01:10:04;99079.94;;;19.52;91.79
49342;BME280;35210;41.606;-87.602;2023-04-20T01:12:33;99087.75;;;19.38;90.10
49342;BME280;35210;41.606;-87.602;2023-04-20T01:15:04;99084.53;;;19.28;86.56
49342;BME280;35210;41.606;-87.602;2023-04-20T01:17:33;99090.13;;;19.19;84.68
49342;BME280;35210;41.606;-87.602;2023-04-20T01:20:03;99088.66;;;19.16;81.19
49342;BME280;35210;41.606;-87.602;2023-04-20T01:22:42;99085.09;;;19.01;79.31
49342;BME280;35210;41.606;-87.602;2023-04-20T01:25:11;99097.88;;;18.68;76.18
49342;BME280;35210;41.606;-87.602;2023-04-20T01:27:39;99109.63;;;18.36;77.22
49342;BME280;35210;41.606;-87.602;2023-04-20T01:30:08;99122.91;;;18.13;73.91
49342;BME280;35210;41.606;-87.602;2023-04-20T01:32:38;99127.34;;;17.90;73.10
49342;BME280;35210;41.606;-87.602;2023-04-20T01:35:07;99141.63;;;17.66;70.31
49342;BME280;35210;41.606;-87.602;2023-04-20T01:37:37;99139.78;;;17.50;69.12
49342;BME280;35210;41.606;-87.602;2023-04-20T01:40:08;99149.81;;;17.24;66.69
49342;BME280;35210;41.606;-87.602;2023-04-20T01:42:37;99157.16;;;16.89;65.95
49342;BME280;35210;41.606;-87.602;2023-04-20T01:45:06;99159.56;;;16.58;67.31
49342;BME280;35210;41.606;-87.602;2023-04-20T01:47:35;99151.19;;;16.29;69.25
49342;BME280;35210;41.606;-87.602;2023-04-20T01:50:04;99160.94;;;16.12;69.69
49342;BME280;35210;41.606;-87.602;2023-04-20T01:52:32;99157.50;;;15.94;70.44
49342;BME280;35210;41.606;-87.602;2023-04-20T01:55:02;99160.88;;;15.70;69.90
49342;BME280;35210;41.606;-87.602;2023-04-20T01:57:30;99148.25;;;15.46;69.57
49342;BME280;35210;41.606;-87.602;2023-04-20T01:59:58;99158.13;;;15.36;71.36
49342;BME280;35210;41.606;-87.602;2023-04-20T02:02:26;99150.72;;;15.22;73.18
49342;BME280;35210;41.606;-87.602;2023-04-20T02:04:54;99141.22;;;15.19;73.99
49342;BME280;35210;41.606;-87.602;2023-04-20T02:07:23;99150.19;;;15.18;74.11
49342;BME280;35210;41.606;-87.602;2023-04-20T02:09:51;99154.97;;;15.15;74.95
49342;BME280;35210;41.606;-87.602;2023-04-20T02:12:21;99153.47;;;15.12;74.91
49342;BME280;35210;41.606;-87.602;2023-04-20T02:14:49;99162.81;;;15.16;74.43
49342;BME280;35210;41.606;-87.602;2023-04-20T02:17:17;99160.28;;;15.15;74.22
49342;BME280;35210;41.606;-87.602;2023-04-20T02:19:45;99159.69;;;15.21;73.74
49342;BME280;35210;41.606;-87.602;2023-04-20T02:22:13;99170.31;;;15.21;72.32
49342;BME280;35210;41.606;-87.602;2023-04-20T02:24:42;99168.19;;;15.06;73.30
49342;BME280;35210;41.606;-87.602;2023-04-20T02:27:10;99164.47;;;14.99;74.57
49342;BME280;35210;41.606;-87.602;2023-04-20T02:29:40;99174.75;;;14.94;75.48
49342;BME280;35210;41.606;-87.602;2023-04-20T02:32:08;99171.78;;;14.97;75.50
49342;BME280;35210;41.606;-87.602;2023-04-20T02:34:36;99164.34;;;15.01;76.10
49342;BME280;35210;41.606;-87.602;2023-04-20T02:37:04;99171.00;;;15.05;75.91
49342;BME280;35210;41.606;-87.602;2023-04-20T02:39:32;99174.06;;;15.10;75.49
49342;BME280;35210;41.606;-87.602;2023-04-20T02:42:01;99172.06;;;15.12;75.85
49342;BME280;35210;41.606;-87.602;2023-04-20T02:44:29;99175.94;;;15.18;75.91
49342;BME280;35210;41.606;-87.602;2023-04-20T02:46:58;99168.03;;;15.26;75.55
49342;BME280;35210;41.606;-87.602;2023-04-20T02:49:27;99177.22;;;15.31;75.47
49342;BME280;35210;41.606;-87.602;2023-04-20T02:51:55;99172.75;;;15.32;75.11
49342;BME280;35210;41.606;-87.602;2023-04-20T02:54:23;99179.88;;;15.31;75.18
49342;BME280;35210;41.606;-87.602;2023-04-20T02:56:51;99175.25;;;15.33;75.01
49342;BME280;35210;41.606;-87.602;2023-04-20T02:59:19;99178.38;;;15.29;75.40
49342;BME280;35210;41.606;-87.602;2023-04-20T03:01:47;99180.50;;;15.25;75.84
49342;BME280;35210;41.606;-87.602;2023-04-20T03:04:17;99177.69;;;15.27;75.78
49342;BME280;35210;41.606;-87.602;2023-04-20T03:06:45;99187.34;;;15.28;76.19
49342;BME280;35210;41.606;-87.602;2023-04-20T03:09:14;99183.31;;;15.24;76.45
49342;BME280;35210;41.606;-87.602;2023-04-20T03:11:42;99180.03;;;15.30;76.37
49342;BME280;35210;41.606;-87.602;2023-04-20T03:14:10;99180.03;;;15.30;76.17
49342;BME280;35210;41.606;-87.602;2023-04-20T03:16:38;99181.88;;;15.29;76.57
49342;BME280;35210;41.606;-87.602;2023-04-20T03:19:06;99179.72;;;15.33;76.32
49342;BME280;35210;41.606;-87.602;2023-04-20T03:21:36;99182.63;;;15.39;76.13
49342;BME280;35210;41.606;-87.602;2023-04-20T03:24:05;99188.00;;;15.48;75.83
49342;BME280;35210;41.606;-87.602;2023-04-20T03:26:33;99185.50;;;15.46;76.31
49342;BME280;35210;41.606;-87.602;2023-04-20T03:29:01;99182.66;;;15.48;76.05
49342;BME280;35210;41.606;-87.602;2023-04-20T03:31:30;99182.38;;;15.51;75.88
49342;BME280;35210;41.606;-87.602;2023-04-20T03:33:58;99159.78;;;15.55;75.78
49342;BME280;35210;41.606;-87.602;2023-04-20T03:36:26;99153.25;;;15.49;76.34
49342;BME280;35210;41.606;-87.602;2023-04-20T03:38:56;99161.16;;;15.41;77.46
49342;BME280;35210;41.606;-87.602;2023-04-20T03:41:24;99162.31;;;15.38;77.71
49342;BME280;35210;41.606;-87.602;2023-04-20T03:43:52;99158.13;;;15.36;77.67
49342;BME280;35210;41.606;-87.602;2023-04-20T03:46:21;99156.16;;;15.38;77.73
49342;BME280;35210;41.606;-87.602;2023-04-20T03:48:49;99152.81;;;15.36;77.29
49342;BME280;35210;41.606;-87.602;2023-04-20T03:51:17;99155.47;;;15.36;77.61
49342;BME280;35210;41.606;-87.602;2023-04-20T03:53:45;99157.63;;;15.32;78.04
49342;BME280;35210;41.606;-87.602;2023-04-20T03:56:15;99138.00;;;15.33;78.17
49342;BME280;35210;41.606;-87.602;2023-04-20T03:58:43;99143.84;;;15.37;78.55
49342;BME280;35210;41.606;-87.602;2023-04-20T04:01:11;99133.19;;;15.37;79.18
49342;BME280;35210;41.606;-87.602;2023-04-20T04:03:40;99138.22;;;15.40;78.84
49342;BME280;35210;41.606;-87.602;2023-04-20T04:06:10;99134.25;;;15.44;78.94
49342;BME280;35210;41.606;-87.602;2023-04-20T04:08:38;99132.94;;;15.48;79.18
49342;BME280;35210;41.606;-87.602;2023-04-20T04:11:06;99134.47;;;15.51;79.48
49342;BME280;35210;41.606;-87.602;2023-04-20T04:13:35;99131.97;;;15.49;79.67
49342;BME280;35210;41.606;-87.602;2023-04-20T04:16:04;99135.97;;;15.53;79.80
49342;BME280;35210;41.606;-87.602;2023-04-20T04:18:32;99127.69;;;15.56;80.04
49342;BME280;35210;41.606;-87.602;2023-04-20T04:21:01;99134.69;;;15.57;80.78
49342;BME280;35210;41.606;-87.602;2023-04-20T04:23:29;99127.69;;;15.56;81.28
49342;BME280;35210;41.606;-87.602;2023-04-20T04:25:57;99121.53;;;15.56;81.47
49342;BME280;35210;41.606;-87.602;2023-04-20T04:28:27;99117.03;;;15.56;81.92
49342;BME280;35210;41.606;-87.602;2023-04-20T04:30:58;99127.06;;;15.62;81.92
49342;BME280;35210;41.606;-87.602;2023-04-20T04:33:31;99116.41;;;15.62;82.34
49342;BME280;35210;41.606;-87.602;2023-04-20T04:35:59;99126.25;;;15.70;82.88
49342;BME280;35210;41.606;-87.602;2023-04-20T04:38:28;99123.44;;;15.71;84.27
49342;BME280;35210;41.606;-87.602;2023-04-20T04:40:56;99122.81;;;15.77;84.66
49342;BME280;35210;41.606;-87.602;2023-04-20T04:43:24;99123.19;;;15.83;85.18
49342;BME280;35210;41.606;-87.602;2023-04-20T04:45:52;99116.34;;;15.80;85.35
49342;BME280;35210;41.606;-87.602;2023-04-20T04:48:25;99117.84;;;15.83;85.05
49342;BME280;35210;41.606;-87.602;2023-04-20T04:50:53;99119.56;;;15.92;85.26
49342;BME280;35210;41.606;-87.602;2023-04-20T04:53:21;99120.56;;;15.91;85.44
49342;BME280;35210;41.606;-87.602;2023-04-20T04:55:49;99109.91;;;15.91;86.28
49342;BME280;35210;41.606;-87.602;2023-04-20T04:58:17;99113.75;;;15.96;86.14
49342;BME280;35210;41.606;-87.602;2023-04-20T05:00:45;99118.75;;;15.99;86.08
49342;BME280;35210;41.606;-87.602;2023-04-20T05:03:13;99101.28;;;15.97;86.67
49342;BME280;35210;41.606;-87.602;2023-04-20T05:05:43;99104.63;;;15.99;86.75
49342;BME280;35210;41.606;-87.602;2023-04-20T05:08:11;99094.31;;;16.04;86.63
49342;BME280;35210;41.606;-87.602;2023-04-20T05:10:39;99099.47;;;16.05;87.82
49342;BME280;35210;41.606;-87.602;2023-04-20T05:13:07;99105.31;;;16.09;88.76
49342;BME280;35210;41.606;-87.602;2023-04-20T05:15:36;99099.69;;;16.20;88.53
49342;BME280;35210;41.606;-87.602;2023-04-20T05:18:04;99110.06;;;16.31;88.19
49342;BME280;35210;41.606;-87.602;2023-04-20T05:20:32;99101.06;;;16.32;88.65
49342;BME280;35210;41.606;-87.602;2023-04-20T05:23:02;99096.38;;;16.34;88.88
49342;BME280;35210;41.606;-87.602;2023-04-20T05:25:30;99093.06;;;16.40;88.91
49342;BME280;35210;41.606;-87.602;2023-04-20T05:27:59;99088.06;;;16.46;89.14
49342;BME280;35210;41.606;-87.602;2023-04-20T05:30:27;99083.75;;;16.53;88.60
49342;BME280;35210;41.606;-87.602;2023-04-20T05:32:55;99078.28;;;16.62;88.26
49342;BME280;35210;41.606;-87.602;2023-04-20T05:35:23;99082.47;;;16.65;87.98
49342;BME280;35210;41.606;-87.602;2023-04-20T05:37:51;99075.81;;;16.77;87.34
49342;BME280;35210;41.606;-87.602;2023-04-20T05:40:22;99079.66;;;16.83;87.44
49342;BME280;35210;41.606;-87.602;2023-04-20T05:42:50;99074.16;;;16.84;86.88
49342;BME280;35210;41.606;-87.602;2023-04-20T05:45:18;99069.66;;;16.93;86.29
49342;BME280;35210;41.606;-87.602;2023-04-20T05:47:51;99071.97;;;17.04;85.92
49342;BME280;35210;41.606;-87.602;2023-04-20T05:50:20;99078.16;;;17.04;85.15
49342;BME280;35210;41.606;-87.602;2023-04-20T05:52:49;99072.94;;;17.11;85.06
49342;BME280;35210;41.606;-87.602;2023-04-20T05:55:18;99064.59;;;17.22;84.36
49342;BME280;35210;41.606;-87.602;2023-04-20T05:57:47;99064.75;;;17.29;83.62
49342;BME280;35210;41.606;-87.602;2023-04-20T06:00:17;99064.56;;;17.38;83.11
49342;BME280;35210;41.606;-87.602;2023-04-20T06:02:45;99067.72;;;17.42;81.80
49342;BME280;35210;41.606;-87.602;2023-04-20T06:05:15;99068.38;;;17.52;80.91
49342;BME280;35210;41.606;-87.602;2023-04-20T06:07:43;99062.84;;;17.62;80.25
49342;BME280;35210;41.606;-87.602;2023-04-20T06:10:12;99071.03;;;17.68;79.59
49342;BME280;35210;41.606;-87.602;2023-04-20T06:12:40;99053.97;;;17.78;78.57
49342;BME280;35210;41.606;-87.602;2023-04-20T06:15:10;99054.03;;;17.92;78.32
49342;BME280;35210;41.606;-87.602;2023-04-20T06:17:38;99066.72;;;17.98;77.96
49342;BME280;35210;41.606;-87.602;2023-04-20T06:20:08;99054.50;;;18.04;76.86
49342;BME280;35210;41.606;-87.602;2023-04-20T06:22:40;99061.63;;;18.12;76.96
49342;BME280;35210;41.606;-87.602;2023-04-20T06:25:09;99051.38;;;18.23;75.78
49342;BME280;35210;41.606;-87.602;2023-04-20T06:27:37;99057.38;;;18.25;75.66
49342;BME280;35210;41.606;-87.602;2023-04-20T06:30:06;99055.16;;;18.37;74.24
49342;BME280;35210;41.606;-87.602;2023-04-20T06:32:36;99056.94;;;18.45;74.50
49342;BME280;35210;41.606;-87.602;2023-04-20T06:35:05;99057.72;;;18.53;73.71
49342;BME280;35210;41.606;-87.602;2023-04-20T06:37:34;99049.13;;;18.58;73.31
49342;BME280;35210;41.606;-87.602;2023-04-20T06:40:03;99047.69;;;18.55;73.47
49342;BME280;35210;41.606;-87.602;2023-04-20T06:42:33;99048.50;;;18.56;73.75
49342;BME280;35210;41.606;-87.602;2023-04-20T06:45:01;99056.47;;;18.64;72.05
49342;BME280;35210;41.606;-87.602;2023-04-20T06:47:29;99053.44;;;18.67;71.77
49342;BME280;35210;41.606;-87.602;2023-04-20T06:50:01;99057.41;;;18.71;71.31
49342;BME280;35210;41.606;-87.602;2023-04-20T06:52:30;99060.03;;;18.79;71.67
49342;BME280;35210;41.606;-87.602;2023-04-20T06:54:58;99063.00;;;18.84;71.93
49342;BME280;35210;41.606;-87.602;2023-04-20T06:57:26;99048.97;;;18.82;71.70
49342;BME280;35210;41.606;-87.602;2023-04-20T06:59:54;99046.94;;;18.84;70.83
49342;BME280;35210;41.606;-87.602;2023-04-20T07:02:24;99042.78;;;18.82;71.39
49342;BME280;35210;41.606;-87.602;2023-04-20T07:04:52;99042.44;;;18.85;70.85
49342;BME280;35210;41.606;-87.602;2023-04-20T07:07:21;99039.94;;;18.83;71.13
49342;BME280;35210;41.606;-87.602;2023-04-20T07:09:49;99034.88;;;18.88;70.78
49342;BME280;35210;41.606;-87.602;2023-04-20T07:12:17;99037.56;;;18.88;71.14
49342;BME280;35210;41.606;-87.602;2023-04-20T07:14:45;99045.28;;;18.83;71.48
49342;BME280;35210;41.606;-87.602;2023-04-20T07:17:16;99039.09;;;18.83;70.96
49342;BME280;35210;41.606;-87.602;2023-04-20T07:19:44;99038.38;;;18.89;70.91
49342;BME280;35210;41.606;-87.602;2023-04-20T07:22:14;99039.94;;;18.83;70.91
49342;BME280;35210;41.606;-87.602;2023-04-20T07:24:43;99036.34;;;18.91;69.78
49342;BME280;35210;41.606;-87.602;2023-04-20T07:27:11;99041.88;;;18.89;70.57
49342;BME280;35210;41.606;-87.602;2023-04-20T07:29:39;99035.00;;;18.95;69.67
49342;BME280;35210;41.606;-87.602;2023-04-20T07:32:08;99034.44;;;18.99;69.21
49342;BME280;35210;41.606;-87.602;2023-04-20T07:34:36;99031.13;;;18.97;69.50
49342;BME280;35210;41.606;-87.602;2023-04-20T07:37:04;99033.97;;;18.96;68.92
49342;BME280;35210;41.606;-87.602;2023-04-20T07:39:32;99042.84;;;18.96;68.97
49342;BME280;35210;41.606;-87.602;2023-04-20T07:42:03;99043.84;;;18.95;69.04
49342;BME280;35210;41.606;-87.602;2023-04-20T07:44:32;99043.47;;;18.98;68.57
49342;BME280;35210;41.606;-87.602;2023-04-20T07:47:00;99035.44;;;18.98;68.78
49342;BME280;35210;41.606;-87.602;2023-04-20T07:49:29;99045.16;;;18.99;69.32
49342;BME280;35210;41.606;-87.602;2023-04-20T07:51:57;99055.50;;;19.02;68.76
49342;BME280;35210;41.606;-87.602;2023-04-20T07:54:25;99041.81;;;18.97;68.55
49342;BME280;35210;41.606;-87.602;2023-04-20T07:56:53;99046.53;;;18.95;68.62
49342;BME280;35210;41.606;-87.602;2023-04-20T07:59:23;99061.56;;;18.96;68.34
49342;BME280;35210;41.606;-87.602;2023-04-20T08:01:51;99055.66;;;19.01;68.62
49342;BME280;35210;41.606;-87.602;2023-04-20T08:04:21;99063.81;;;19.08;67.39
49342;BME280;35210;41.606;-87.602;2023-04-20T08:06:49;99069.16;;;19.08;67.46
49342;BME280;35210;41.606;-87.602;2023-04-20T08:09:17;99070.47;;;19.12;66.70
49342;BME280;35210;41.606;-87.602;2023-04-20T08:11:45;99067.78;;;19.12;66.54
49342;BME280;35210;41.606;-87.602;2023-04-20T08:14:14;99070.28;;;19.13;66.92
49342;BME280;35210;41.606;-87.602;2023-04-20T08:16:44;99067.34;;;19.23;66.50
49342;BME280;35210;41.606;-87.602;2023-04-20T08:19:13;99075.25;;;19.16;66.13
49342;BME280;35210;41.606;-87.602;2023-04-20T08:21:41;99067.81;;;19.26;65.22
49342;BME280;35210;41.606;-87.602;2023-04-20T08:24:10;99068.47;;;19.28;65.74
49342;BME280;35210;41.606;-87.602;2023-04-20T08:26:38;99066.44;;;19.30;65.22
49342;BME280;35210;41.606;-87.602;2023-04-20T08:29:06;99064.19;;;19.34;65.19
49342;BME280;35210;41.606;-87.602;2023-04-20T08:31:35;99063.66;;;19.38;64.93
49342;BME280;35210;41.606;-87.602;2023-04-20T08:34:04;99059.41;;;19.44;64.16
49342;BME280;35210;41.606;-87.602;2023-04-20T08:36:32;99070.75;;;19.46;64.32
49342;BME280;35210;41.606;-87.602;2023-04-20T08:39:06;99079.16;;;19.43;64.03
49342;BME280;35210;41.606;-87.602;2023-04-20T08:41:35;99069.03;;;19.53;64.44
49342;BME280;35210;41.606;-87.602;2023-04-20T08:44:03;99062.84;;;19.53;64.03
49342;BME280;35210;41.606;-87.602;2023-04-20T08:46:32;99066.66;;;19.58;63.29
49342;BME280;35210;41.606;-87.602;2023-04-20T08:49:01;99066.28;;;19.61;63.04
49342;BME280;35210;41.606;-87.602;2023-04-20T08:51:30;99070.44;;;19.64;63.42
49342;BME280;35210;41.606;-87.602;2023-04-20T08:54:03;99070.34;;;19.57;62.62
49342;BME280;35210;41.606;-87.602;2023-04-20T08:56:35;99064.25;;;19.63;63.78
49342;BME280;35210;41.606;-87.602;2023-04-20T08:59:04;99057.69;;;19.66;63.17
49342;BME280;35210;41.606;-87.602;2023-04-20T09:01:35;99045.97;;;19.67;63.15
49342;BME280;35210;41.606;-87.602;2023-04-20T09:04:15;99049.84;;;19.64;63.38
49342;BME280;35210;41.606;-87.602;2023-04-20T09:06:46;99053.16;;;19.66;63.22
49342;BME280;35210;41.606;-87.602;2023-04-20T09:09:15;99040.50;;;19.60;63.43
49342;BME280;35210;41.606;-87.602;2023-04-20T09:11:44;99043.47;;;19.65;63.23
49342;BME280;35210;41.606;-87.602;2023-04-20T09:14:13;99035.44;;;19.65;63.19
49342;BME280;35210;41.606;-87.602;2023-04-20T09:16:48;99016.50;;;19.67;62.92
49342;BME280;35210;41.606;-87.602;2023-04-20T09:19:21;99014.38;;;19.62;63.10
49342;BME280;35210;41.606;-87.602;2023-04-20T09:21:52;99007.06;;;19.56;62.97
49342;BME280;35210;41.606;-87.602;2023-04-20T09:24:22;98990.16;;;19.71;62.61
49342;BME280;35210;41.606;-87.602;2023-04-20T09:26:50;98992.56;;;19.65;62.79
49342;BME280;35210;41.606;-87.602;2023-04-20T09:29:19;98982.69;;;19.66;62.36
49342;BME280;35210;41.606;-87.602;2023-04-20T09:31:49;98976.69;;;19.64;62.63
49342;BME280;35210;41.606;-87.602;2023-04-20T09:34:17;98974.47;;;19.67;61.98
49342;BME280;35210;41.606;-87.602;2023-04-20T09:36:47;98980.19;;;19.64;62.13
49342;BME280;35210;41.606;-87.602;2023-04-20T09:39:18;98975.66;;;19.65;62.00
49342;BME280;35210;41.606;-87.602;2023-04-20T09:41:47;98982.78;;;19.73;62.41
49342;BME280;35210;41.606;-87.602;2023-04-20T09:44:16;98987.94;;;19.74;62.07
49342;BME280;35210;41.606;-87.602;2023-04-20T09:46:45;98992.47;;;19.74;62.11
49342;BME280;35210;41.606;-87.602;2023-04-20T09:49:13;98982.41;;;19.76;62.24
49342;BME280;35210;41.606;-87.602;2023-04-20T09:51:42;98986.09;;;19.75;62.38
49342;BME280;35210;41.606;-87.602;2023-04-20T09:54:12;98985.25;;;19.74;62.40
49342;BME280;35210;41.606;-87.602;2023-04-20T09:56:42;98997.63;;;19.75;62.14
49342;BME280;35210;41.606;-87.602;2023-04-20T09:59:10;99013.91;;;19.74;62.45
49342;BME280;35210;41.606;-87.602;2023-04-20T10:01:39;99029.13;;;19.73;61.94
49342;BME280;35210;41.606;-87.602;2023-04-20T10:04:08;99061.47;;;19.72;62.13
49342;BME280;35210;41.606;-87.602;2023-04-20T10:06:39;99066.66;;;19.73;63.88
49342;BME280;35210;41.606;-87.602;2023-04-20T10:09:21;99087.53;;;19.78;66.10
49342;BME280;35210;41.606;-87.602;2023-04-20T10:11:51;99097.69;;;19.67;67.48
49342;BME280;35210;41.606;-87.602;2023-04-20T10:14:21;99090.94;;;19.72;68.14
49342;BME280;35210;41.606;-87.602;2023-04-20T10:16:58;99105.63;;;19.61;68.50
49342;BME280;35210;41.606;-87.602;2023-04-20T10:19:36;99094.38;;;19.43;69.87
49342;BME280;35210;41.606;-87.602;2023-04-20T10:22:05;99077.69;;;19.26;71.52
49342;BME280;35210;41.606;-87.602;2023-04-20T10:24:34;99086.75;;;19.02;74.35
49342;BME280;35210;41.606;-87.602;2023-04-20T10:27:15;99071.59;;;18.94;76.29
49342;BME280;35210;41.606;-87.602;2023-04-20T10:29:43;99069.34;;;18.83;76.61
49342;BME280;35210;41.606;-87.602;2023-04-20T10:32:21;99066.41;;;18.78;78.46
49342;BME280;35210;41.606;-87.602;2023-04-20T10:35:00;99091.22;;;18.64;78.59
49342;BME280;35210;41.606;-87.602;2023-04-20T10:37:28;99090.63;;;18.54;79.49
49342;BME280;35210;41.606;-87.602;2023-04-20T10:39:57;99082.84;;;18.44;81.57
49342;BME280;35210;41.606;-87.602;2023-04-20T10:42:26;99084.38;;;18.38;82.30
49342;BME280;35210;41.606;-87.602;2023-04-20T10:44:55;99084.47;;;18.22;82.92
49342;BME280;35210;41.606;-87.602;2023-04-20T10:47:27;99084.53;;;18.06;84.14
49342;BME280;35210;41.606;-87.602;2023-04-20T10:50:05;99079.84;;;18.08;84.10
49342;BME280;35210;41.606;-87.602;2023-04-20T10:52:33;99053.31;;;18.06;84.03
49342;BME280;35210;41.606;-87.602;2023-04-20T10:55:02;99010.56;;;18.06;84.38
49342;BME280;35210;41.606;-87.602;2023-04-20T10:57:31;98978.13;;;17.87;86.70
49342;BME280;35210;41.606;-87.602;2023-04-20T10:59:59;98983.47;;;17.87;87.25
49342;BME280;35210;41.606;-87.602;2023-04-20T11:02:46;98953.59;;;17.83;87.07
49342;BME280;35210;41.606;-87.602;2023-04-20T11:05:16;98916.47;;;17.73;88.43
49342;BME280;35210;41.606;-87.602;2023-04-20T11:07:50;98911.16;;;17.65;88.96
49342;BME280;35210;41.606;-87.602;2023-04-20T11:10:19;98891.78;;;17.63;89.24
49342;BME280;35210;41.606;-87.602;2023-04-20T11:12:49;98948.88;;;17.62;88.71
49342;BME280;35210;41.606;-87.602;2023-04-20T11:15:17;98979.25;;;17.61;89.41
49342;BME280;35210;41.606;-87.602;2023-04-20T11:17:45;98949.91;;;17.53;88.99
49342;BME280;35210;41.606;-87.602;2023-04-20T11:20:14;98978.94;;;17.56;88.80
49342;BME280;35210;41.606;-87.602;2023-04-20T11:22:44;98972.25;;;17.60;89.28
49342;BME280;35210;41.606;-87.602;2023-04-20T11:25:12;98985.28;;;17.55;89.07
49342;BME280;35210;41.606;-87.602;2023-04-20T11:27:41;98975.56;;;17.62;89.06
49342;BME280;35210;41.606;-87.602;2023-04-20T11:30:11;98982.25;;;17.66;88.73
49342;BME280;35210;41.606;-87.602;2023-04-20T11:32:39;98980.91;;;17.62;88.99
49342;BME280;35210;41.606;-87.602;2023-04-20T11:35:08;98975.25;;;17.65;89.46
49342;BME280;35210;41.606;-87.602;2023-04-20T11:37:45;98987.59;;;17.66;89.65
49342;BME280;35210;41.606;-87.602;2023-04-20T11:40:14;99009.13;;;17.57;89.79
49342;BME280;35210;41.606;-87.602;2023-04-20T11:42:42;99020.97;;;17.54;90.09
49342;BME280;35210;41.606;-87.602;2023-04-20T11:45:13;99016.16;;;17.50;89.87
49342;BME280;35210;41.606;-87.602;2023-04-20T11:47:41;99019.97;;;17.55;90.27
49342;BME280;35210;41.606;-87.602;2023-04-20T11:50:12;99020.97;;;17.54;89.95
49342;BME280;35210;41.606;-87.602;2023-04-20T11:52:40;99037.00;;;17.54;90.11
49342;BME280;35210;41.606;-87.602;2023-04-20T11:55:09;99030.34;;;17.50;89.41
49342;BME280;35210;41.606;-87.602;2023-04-20T11:57:37;99020.81;;;17.56;89.63
49342;BME280;35210;41.606;-87.602;2023-04-20T12:00:09;98999.97;;;17.51;89.12
49342;BME280;35210;41.606;-87.602;2023-04-20T12:02:41;99001.00;;;17.42;89.99
49342;BME280;35210;41.606;-87.602;2023-04-20T12:05:10;98998.66;;;17.47;89.73
49342;BME280;35210;41.606;-87.602;2023-04-20T12:07:39;99018.34;;;17.46;89.70
49342;BME280;35210;41.606;-87.602;2023-04-20T12:10:09;99017.03;;;17.42;88.94
49342;BME280;35210;41.606;-87.602;2023-04-20T12:12:38;99008.00;;;17.43;89.79
49342;BME280;35210;41.606;-87.602;2023-04-20T12:15:10;99017.16;;;17.49;88.96
49342;BME280;35210;41.606;-87.602;2023-04-20T12:17:41;99024.34;;;17.48;88.52
49342;BME280;35210;41.606;-87.602;2023-04-20T12:20:09;99036.31;;;17.60;88.78
49342;BME280;35210;41.606;-87.602;2023-04-20T12:22:41;99025.63;;;17.60;86.91
49342;BME280;35210;41.606;-87.602;2023-04-20T12:25:11;99025.28;;;17.63;87.26
49342;BME280;35210;41.606;-87.602;2023-04-20T12:27:39;99028.13;;;17.70;87.24
49342;BME280;35210;41.606;-87.602;2023-04-20T12:30:09;99027.97;;;17.71;86.96
49342;BME280;35210;41.606;-87.602;2023-04-20T12:32:39;99035.81;;;17.73;85.91
49342;BME280;35210;41.606;-87.602;2023-04-20T12:35:08;99027.63;;;17.75;85.43
49342;BME280;35210;41.606;-87.602;2023-04-20T12:37:39;99007.56;;;17.79;84.87
49342;BME280;35210;41.606;-87.602;2023-04-20T12:40:08;99026.84;;;17.89;84.52
49342;BME280;35210;41.606;-87.602;2023-04-20T12:42:37;99024.66;;;17.92;83.85
49342;BME280;35210;41.606;-87.602;2023-04-20T12:45:06;99025.63;;;17.99;82.76
49342;BME280;35210;41.606;-87.602;2023-04-20T12:47:36;99023.75;;;18.08;82.25
49342;BME280;35210;41.606;-87.602;2023-04-20T12:50:07;99007.84;;;18.15;81.48